Wetterdaten: Montag, 23.01.2023
Datum Zeit Temp. Aussen Temp. o. S. Temp +5cm Feuchte Auss Luftdruck Regen Sonnenschein Regendauer Solar Windben Empfang
23.01.2023 00:00 1,4 C 1,1 C -1,1 C 95 % 1034,2 hPa 0,0 l/m 0 min 0 min 0 W/m 3,2 km/h (1 Bft) 98,25 %
23.01.2023 00:05 1,4 C 1,1 C -1,1 C 95 % 1034,2 hPa 0,0 l/m 0 min 0 min 0 W/m 12,9 km/h (3 Bft) 99,12 %
23.01.2023 00:10 1,4 C 1,1 C -1,1 C 95 % 1034,2 hPa 0,0 l/m 0 min 0 min 0 W/m 3,2 km/h (1 Bft) 80,70 %
23.01.2023 00:15 1,4 C 1,1 C -1,1 C 95 % 1034,3 hPa 0,0 l/m 0 min 0 min 0 W/m 3,2 km/h (1 Bft) 77,19 %
23.01.2023 00:20 1,4 C 1,1 C -1,1 C 95 % 1034,3 hPa 0,0 l/m 0 min 0 min 0 W/m 6,4 km/h (2 Bft) 98,25 %
23.01.2023 00:25 1,5 C 1,1 C -1,1 C 96 % 1034,2 hPa 0,0 l/m 0 min 0 min 0 W/m 6,4 km/h (2 Bft) 96,49 %
23.01.2023 00:30 1,5 C 1,1 C -1,1 C 96 % 1034,2 hPa 0,0 l/m 0 min 0 min 0 W/m 6,4 km/h (2 Bft) 98,25 %
23.01.2023 00:35 1,5 C 1,1 C -1,1 C 96 % 1034,3 hPa 0,0 l/m 0 min 0 min 0 W/m 3,2 km/h (1 Bft) 100,00 %
23.01.2023 00:40 1,5 C 1,1 C -1,1 C 96 % 1034,3 hPa 0,0 l/m 0 min 0 min 0 W/m 3,2 km/h (1 Bft) 100,00 %
23.01.2023 00:45 1,6 C 1,1 C -1,1 C 96 % 1034,3 hPa 0,0 l/m 0 min 0 min 0 W/m 9,7 km/h (2 Bft) 99,12 %
23.01.2023 00:50 1,6 C 1,1 C -1,1 C 96 % 1034,3 hPa 0,0 l/m 0 min 0 min 0 W/m 6,4 km/h (2 Bft) 98,25 %
23.01.2023 00:55 1,6 C 1,1 C -1,1 C 96 % 1034,3 hPa 0,0 l/m 0 min 0 min 0 W/m 3,2 km/h (1 Bft) 100,00 %
23.01.2023 01:00 1,6 C 1,1 C -1,1 C 96 % 1034,4 hPa 0,0 l/m 0 min 0 min 0 W/m 6,4 km/h (2 Bft) 99,12 %
23.01.2023 01:05 1,6 C 1,1 C -1,1 C 96 % 1034,5 hPa 0,0 l/m 0 min 0 min 0 W/m 3,2 km/h (1 Bft) 100,00 %
23.01.2023 01:10 1,6 C 1,1 C -1,1 C 96 % 1034,5 hPa 0,0 l/m 0 min 0 min 0 W/m 3,2 km/h (1 Bft) 100,00 %
23.01.2023 01:15 1,6 C 1,1 C -1,1 C 96 % 1034,6 hPa 0,0 l/m 0 min 0 min 0 W/m 6,4 km/h (2 Bft) 100,00 %
23.01.2023 01:20 1,6 C 1,1 C -1,1 C 96 % 1034,5 hPa 0,0 l/m 0 min 0 min 0 W/m 6,4 km/h (2 Bft) 100,00 %
23.01.2023 01:25 1,6 C 1,1 C -1,1 C 96 % 1034,5 hPa 0,0 l/m 0 min 0 min 0 W/m 6,4 km/h (2 Bft) 100,00 %
23.01.2023 01:30 1,6 C 1,1 C -1,1 C 96 % 1034,4 hPa 0,0 l/m 0 min 0 min 0 W/m 6,4 km/h (2 Bft) 100,00 %
23.01.2023 01:35 1,6 C 1,1 C -1,1 C 96 % 1034,4 hPa 0,0 l/m 0 min 0 min 0 W/m 6,4 km/h (2 Bft) 100,00 %
23.01.2023 01:40 1,6 C 1,1 C -1,1 C 96 % 1034,4 hPa 0,0 l/m 0 min 0 min 0 W/m 12,9 km/h (3 Bft) 100,00 %
23.01.2023 01:45 1,6 C 1,1 C -1,1 C 96 % 1034,4 hPa 0,0 l/m 0 min 0 min 0 W/m 3,2 km/h (1 Bft) 100,00 %
23.01.2023 01:50 1,6 C 1,1 C -1,1 C 96 % 1034,4 hPa 0,0 l/m 0 min 0 min 0 W/m 6,4 km/h (2 Bft) 100,00 %
23.01.2023 01:55 1,6 C 1,1 C -1,1 C 96 % 1034,4 hPa 0,0 l/m 0 min 0 min 0 W/m 12,9 km/h (3 Bft) 100,00 %
23.01.2023 02:00 1,6 C 1,1 C -1,1 C 96 % 1034,5 hPa 0,0 l/m 0 min 0 min 0 W/m 6,4 km/h (2 Bft) 100,00 %
23.01.2023 02:05 1,6 C 1,1 C -1,1 C 96 % 1034,5 hPa 0,0 l/m 0 min 0 min 0 W/m 6,4 km/h (2 Bft) 98,25 %
23.01.2023 02:10 1,6 C 1,1 C -1,1 C 96 % 1034,5 hPa 0,0 l/m 0 min 0 min 0 W/m 9,7 km/h (2 Bft) 100,00 %
23.01.2023 02:15 1,6 C 1,1 C -1,1 C 96 % 1034,6 hPa 0,0 l/m 0 min 0 min 0 W/m 6,4 km/h (2 Bft) 99,12 %
23.01.2023 02:20 1,6 C 1,1 C -1,1 C 96 % 1034,6 hPa 0,0 l/m 0 min 0 min 0 W/m 6,4 km/h (2 Bft) 100,00 %
23.01.2023 02:25 1,6 C 1,1 C -1,1 C 96 % 1034,6 hPa 0,0 l/m 0 min 0 min 0 W/m 0,0 km/h (0 Bft) 100,00 %
23.01.2023 02:30 1,6 C 1,1 C -1,1 C 96 % 1034,7 hPa 0,0 l/m 0 min 0 min 0 W/m 0,0 km/h (0 Bft) 99,12 %
23.01.2023 02:35 1,6 C 1,1 C -1,1 C 96 % 1034,8 hPa 0,0 l/m 0 min 0 min 0 W/m 0,0 km/h (0 Bft) 100,00 %
23.01.2023 02:40 1,6 C 1,1 C -1,1 C 96 % 1034,9 hPa 0,0 l/m 0 min 0 min 0 W/m 0,0 km/h (0 Bft) 100,00 %
23.01.2023 02:45 1,6 C 1,1 C -0,6 C 96 % 1034,9 hPa 0,0 l/m 0 min 0 min 0 W/m 9,7 km/h (2 Bft) 100,00 %
23.01.2023 02:50 1,6 C 1,1 C -1,1 C 96 % 1034,9 hPa 0,0 l/m 0 min 0 min 0 W/m 3,2 km/h (1 Bft) 100,00 %
23.01.2023 02:55 1,6 C 1,1 C -1,1 C 96 % 1034,8 hPa 0,0 l/m 0 min 0 min 0 W/m 9,7 km/h (2 Bft) 100,00 %
23.01.2023 03:00 1,6 C 1,1 C -1,1 C 96 % 1034,8 hPa 0,0 l/m 0 min 0 min 0 W/m 9,7 km/h (2 Bft) 100,00 %
23.01.2023 03:05 1,6 C 1,1 C -1,1 C 96 % 1034,7 hPa 0,0 l/m 0 min 0 min 0 W/m 6,4 km/h (2 Bft) 100,00 %
23.01.2023 03:10 1,6 C 1,1 C -1,1 C 96 % 1034,8 hPa 0,0 l/m 0 min 0 min 0 W/m 6,4 km/h (2 Bft) 98,25 %
23.01.2023 03:15 1,6 C 1,1 C -1,1 C 96 % 1034,7 hPa 0,0 l/m 0 min 0 min 0 W/m 6,4 km/h (2 Bft) 100,00 %
23.01.2023 03:20 1,6 C 1,1 C -1,1 C 96 % 1034,8 hPa 0,0 l/m 0 min 0 min 0 W/m 3,2 km/h (1 Bft) 99,12 %
23.01.2023 03:25 1,6 C 1,1 C -1,1 C 96 % 1034,8 hPa 0,0 l/m 0 min 0 min 0 W/m 9,7 km/h (2 Bft) 98,25 %
23.01.2023 03:30 1,6 C 1,1 C -0,6 C 96 % 1034,9 hPa 0,0 l/m 0 min 0 min 0 W/m 9,7 km/h (2 Bft) 98,25 %
23.01.2023 03:35 1,6 C 1,1 C -1,1 C 96 % 1034,8 hPa 0,0 l/m 0 min 0 min 0 W/m 9,7 km/h (2 Bft) 98,25 %
23.01.2023 03:40 1,7 C 1,1 C -1,1 C 96 % 1034,7 hPa 0,0 l/m 0 min 0 min 0 W/m 9,7 km/h (2 Bft) 93,86 %
23.01.2023 03:45 1,7 C 1,1 C -1,1 C 96 % 1034,7 hPa 0,0 l/m 0 min 0 min 0 W/m 6,4 km/h (2 Bft) 97,37 %
23.01.2023 03:50 1,6 C 1,1 C -1,1 C 96 % 1034,7 hPa 0,0 l/m 0 min 0 min 0 W/m 12,9 km/h (3 Bft) 71,93 %
23.01.2023 03:55 1,6 C 1,1 C -1,1 C 96 % 1034,6 hPa 0,0 l/m 0 min 0 min 0 W/m 16,1 km/h (3 Bft) 97,37 %
23.01.2023 04:00 1,6 C 1,1 C -1,1 C 96 % 1034,6 hPa 0,0 l/m 0 min 0 min 0 W/m 6,4 km/h (2 Bft) 98,25 %
23.01.2023 04:05 1,6 C 1,1 C -1,1 C 96 % 1034,6 hPa 0,0 l/m 0 min 0 min 0 W/m 6,4 km/h (2 Bft) 100,00 %
23.01.2023 04:10 1,6 C 1,1 C -1,1 C 96 % 1034,7 hPa 0,0 l/m 0 min 0 min 0 W/m 0,0 km/h (0 Bft) 100,00 %
23.01.2023 04:15 1,6 C 1,1 C -1,1 C 96 % 1034,7 hPa 0,0 l/m 0 min 0 min 0 W/m 9,7 km/h (2 Bft) 100,00 %
23.01.2023 04:20 1,6 C 1,1 C -1,1 C 96 % 1034,6 hPa 0,0 l/m 0 min 0 min 0 W/m 6,4 km/h (2 Bft) 100,00 %
23.01.2023 04:25 1,6 C 1,1 C -1,1 C 96 % 1034,7 hPa 0,0 l/m 0 min 0 min 0 W/m 6,4 km/h (2 Bft) 100,00 %
23.01.2023 04:30 1,5 C 0,6 C -1,1 C 95 % 1034,7 hPa 0,0 l/m 0 min 0 min 0 W/m 6,4 km/h (2 Bft) 100,00 %
23.01.2023 04:35 1,4 C 0,6 C -1,7 C 95 % 1034,7 hPa 0,0 l/m 0 min 0 min 0 W/m 3,2 km/h (1 Bft) 100,00 %
23.01.2023 04:40 1,4 C 0,0 C -1,7 C 95 % 1034,8 hPa 0,0 l/m 0 min 0 min 0 W/m 6,4 km/h (2 Bft) 100,00 %
23.01.2023 04:45 1,3 C 0,0 C -1,7 C 95 % 1034,9 hPa 0,0 l/m 0 min 0 min 0 W/m 3,2 km/h (1 Bft) 100,00 %
23.01.2023 04:50 1,2 C 0,0 C -1,7 C 95 % 1034,9 hPa 0,0 l/m 0 min 0 min 0 W/m 3,2 km/h (1 Bft) 98,25 %
23.01.2023 04:55 1,1 C 0,0 C -2,2 C 95 % 1034,9 hPa 0,0 l/m 0 min 0 min 0 W/m 3,2 km/h (1 Bft) 99,12 %
23.01.2023 05:00 1,0 C -0,6 C -2,2 C 95 % 1035,0 hPa 0,0 l/m 0 min 0 min 0 W/m 3,2 km/h (1 Bft) 100,00 %
23.01.2023 05:05 0,9 C 0,0 C -2,2 C 95 % 1035,0 hPa 0,0 l/m 0 min 0 min 0 W/m 6,4 km/h (2 Bft) 98,25 %
23.01.2023 05:10 0,9 C 0,0 C -1,7 C 95 % 1035,0 hPa 0,0 l/m 0 min 0 min 0 W/m 12,9 km/h (3 Bft) 99,12 %
23.01.2023 05:15 1,0 C 0,6 C -1,7 C 95 % 1035,0 hPa 0,0 l/m 0 min 0 min 0 W/m 6,4 km/h (2 Bft) 99,12 %
23.01.2023 05:20 1,1 C 0,6 C -1,7 C 95 % 1035,0 hPa 0,0 l/m 0 min 0 min 0 W/m 9,7 km/h (2 Bft) 100,00 %
23.01.2023 05:25 1,2 C 0,6 C -1,1 C 95 % 1035,1 hPa 0,0 l/m 0 min 0 min 0 W/m 9,7 km/h (2 Bft) 100,00 %
23.01.2023 05:30 1,2 C 0,6 C -1,1 C 95 % 1035,0 hPa 0,0 l/m 0 min 0 min 0 W/m 9,7 km/h (2 Bft) 100,00 %
23.01.2023 05:35 1,2 C 0,6 C -1,1 C 95 % 1035,0 hPa 0,0 l/m 0 min 0 min 0 W/m 12,9 km/h (3 Bft) 100,00 %
23.01.2023 05:40 1,3 C 0,6 C -1,1 C 95 % 1035,0 hPa 0,0 l/m 0 min 0 min 0 W/m 12,9 km/h (3 Bft) 99,12 %
23.01.2023 05:45 1,3 C 0,6 C -1,1 C 95 % 1035,0 hPa 0,0 l/m 0 min 0 min 0 W/m 9,7 km/h (2 Bft) 100,00 %
23.01.2023 05:50 1,3 C 0,6 C -1,1 C 95 % 1035,0 hPa 0,0 l/m 0 min 0 min 0 W/m 6,4 km/h (2 Bft) 99,12 %
23.01.2023 05:55 1,3 C 0,6 C -1,1 C 95 % 1034,9 hPa 0,0 l/m 0 min 0 min 0 W/m 9,7 km/h (2 Bft) 100,00 %
23.01.2023 06:00 1,3 C 0,6 C -1,1 C 95 % 1035,0 hPa 0,0 l/m 0 min 0 min 0 W/m 6,4 km/h (2 Bft) 100,00 %
23.01.2023 06:05 1,3 C 0,6 C -1,1 C 95 % 1035,0 hPa 0,0 l/m 0 min 0 min 0 W/m 6,4 km/h (2 Bft) 100,00 %
23.01.2023 06:10 1,3 C 1,1 C -1,1 C 95 % 1035,0 hPa 0,0 l/m 0 min 0 min 0 W/m 3,2 km/h (1 Bft) 98,25 %
23.01.2023 06:15 1,3 C 1,1 C -1,1 C 95 % 1035,0 hPa 0,0 l/m 0 min 0 min 0 W/m 6,4 km/h (2 Bft) 80,70 %
23.01.2023 06:20 1,4 C 1,1 C -1,1 C 95 % 1035,0 hPa 0,0 l/m 0 min 0 min 0 W/m 16,1 km/h (3 Bft) 100,00 %
23.01.2023 06:25 1,4 C 1,1 C -1,1 C 95 % 1035,0 hPa 0,0 l/m 0 min 0 min 0 W/m 6,4 km/h (2 Bft) 100,00 %
23.01.2023 06:30 1,5 C 1,1 C -1,1 C 95 % 1035,0 hPa 0,0 l/m 0 min 0 min 0 W/m 9,7 km/h (2 Bft) 100,00 %
23.01.2023 06:35 1,5 C 1,1 C -1,1 C 95 % 1035,2 hPa 0,0 l/m 0 min 0 min 0 W/m 9,7 km/h (2 Bft) 98,25 %
23.01.2023 06:40 1,6 C 1,1 C -1,1 C 95 % 1035,3 hPa 0,0 l/m 0 min 0 min 0 W/m 6,4 km/h (2 Bft) 100,00 %
23.01.2023 06:45 1,6 C 1,1 C -1,1 C 95 % 1035,3 hPa 0,0 l/m 0 min 0 min 0 W/m 12,9 km/h (3 Bft) 99,12 %
23.01.2023 06:50 1,6 C 1,1 C -1,1 C 95 % 1035,3 hPa 0,0 l/m 0 min 0 min 0 W/m 12,9 km/h (3 Bft) 98,25 %
23.01.2023 06:55 1,7 C 1,1 C -1,1 C 95 % 1035,3 hPa 0,0 l/m 0 min 0 min 0 W/m 6,4 km/h (2 Bft) 99,12 %
23.01.2023 07:00 1,7 C 1,1 C -1,1 C 95 % 1035,3 hPa 0,0 l/m 0 min 0 min 0 W/m 6,4 km/h (2 Bft) 100,00 %
23.01.2023 07:05 1,7 C 1,1 C -0,6 C 95 % 1035,3 hPa 0,0 l/m 0 min 0 min 0 W/m 16,1 km/h (3 Bft) 99,12 %
23.01.2023 07:10 1,7 C 1,1 C -0,6 C 95 % 1035,4 hPa 0,0 l/m 0 min 0 min 0 W/m 16,1 km/h (3 Bft) 100,00 %
23.01.2023 07:15 1,7 C 1,1 C -0,6 C 95 % 1035,5 hPa 0,0 l/m 0 min 0 min 0 W/m 12,9 km/h (3 Bft) 99,12 %
23.01.2023 07:20 1,7 C 1,1 C -0,6 C 95 % 1035,5 hPa 0,0 l/m 0 min 0 min 0 W/m 9,7 km/h (2 Bft) 97,37 %
23.01.2023 07:25 1,7 C 1,1 C -1,1 C 95 % 1035,5 hPa 0,0 l/m 0 min 0 min 0 W/m 9,7 km/h (2 Bft) 99,12 %
23.01.2023 07:30 1,7 C 1,1 C -1,1 C 95 % 1035,6 hPa 0,0 l/m 0 min 0 min 0 W/m 6,4 km/h (2 Bft) 97,37 %
23.01.2023 07:35 1,6 C 1,1 C -1,1 C 95 % 1035,6 hPa 0,0 l/m 0 min 0 min 0 W/m 9,7 km/h (2 Bft) 96,49 %
23.01.2023 07:40 1,6 C 1,1 C -1,1 C 95 % 1035,6 hPa 0,0 l/m 0 min 0 min 0 W/m 6,4 km/h (2 Bft) 99,12 %
23.01.2023 07:45 1,6 C 0,6 C -1,1 C 94 % 1035,5 hPa 0,0 l/m 0 min 0 min 0 W/m 12,9 km/h (3 Bft) 96,49 %
23.01.2023 07:50 1,5 C 0,6 C -1,1 C 94 % 1035,7 hPa 0,0 l/m 0 min 0 min 0 W/m 12,9 km/h (3 Bft) 98,25 %
23.01.2023 07:55 1,5 C 1,1 C -1,1 C 94 % 1035,8 hPa 0,0 l/m 0 min 0 min 0 W/m 12,9 km/h (3 Bft) 100,00 %
23.01.2023 08:00 1,5 C 1,1 C -1,1 C 94 % 1035,8 hPa 0,0 l/m 0 min 0 min 0 W/m 16,1 km/h (3 Bft) 100,00 %
23.01.2023 08:05 1,6 C 1,1 C -1,1 C 94 % 1036,0 hPa 0,0 l/m 0 min 0 min 0 W/m 9,7 km/h (2 Bft) 100,00 %
23.01.2023 08:10 1,6 C 1,1 C -1,1 C 94 % 1036,0 hPa 0,0 l/m 0 min 0 min 0 W/m 9,7 km/h (2 Bft) 100,00 %
23.01.2023 08:15 1,6 C 1,1 C -1,1 C 94 % 1036,0 hPa 0,0 l/m 0 min 0 min 0 W/m 16,1 km/h (3 Bft) 100,00 %
23.01.2023 08:20 1,6 C 1,1 C -1,1 C 95 % 1036,1 hPa 0,0 l/m 0 min 0 min 0 W/m 9,7 km/h (2 Bft) 100,00 %
23.01.2023 08:25 1,7 C 1,1 C -1,1 C 95 % 1036,1 hPa 0,0 l/m 0 min 0 min 0 W/m 16,1 km/h (3 Bft) 100,00 %
23.01.2023 08:30 1,7 C 1,1 C -0,6 C 95 % 1036,1 hPa 0,0 l/m 0 min 0 min 0 W/m 12,9 km/h (3 Bft) 100,00 %
23.01.2023 08:35 1,7 C 1,1 C -0,6 C 94 % 1036,2 hPa 0,0 l/m 0 min 0 min 0 W/m 9,7 km/h (2 Bft) 100,00 %
23.01.2023 08:40 1,8 C 1,1 C -0,6 C 94 % 1036,3 hPa 0,0 l/m 0 min 0 min 4 W/m 12,9 km/h (3 Bft) 100,00 %
23.01.2023 08:45 1,8 C 1,1 C -0,6 C 94 % 1036,3 hPa 0,0 l/m 0 min 0 min 5 W/m 12,9 km/h (3 Bft) 100,00 %
23.01.2023 08:50 1,8 C 1,1 C -0,6 C 94 % 1036,3 hPa 0,0 l/m 0 min 0 min 8 W/m 9,7 km/h (2 Bft) 100,00 %
23.01.2023 08:55 1,8 C 1,1 C -0,6 C 95 % 1036,4 hPa 0,0 l/m 0 min 0 min 9 W/m 6,4 km/h (2 Bft) 100,00 %
23.01.2023 09:00 1,9 C 1,1 C -0,6 C 95 % 1036,3 hPa 0,0 l/m 0 min 0 min 11 W/m 6,4 km/h (2 Bft) 100,00 %
23.01.2023 09:05 1,9 C 1,1 C -0,6 C 95 % 1036,4 hPa 0,0 l/m 0 min 0 min 12 W/m 9,7 km/h (2 Bft) 100,00 %
23.01.2023 09:10 1,9 C 1,7 C -0,6 C 95 % 1036,3 hPa 0,0 l/m 0 min 0 min 14 W/m 9,7 km/h (2 Bft) 98,25 %
23.01.2023 09:15 1,9 C 1,7 C -0,6 C 95 % 1036,3 hPa 0,0 l/m 0 min 0 min 16 W/m 6,4 km/h (2 Bft) 99,12 %
23.01.2023 09:20 1,9 C 1,7 C -0,6 C 95 % 1036,3 hPa 0,0 l/m 0 min 0 min 18 W/m 12,9 km/h (3 Bft) 98,25 %
23.01.2023 09:25 1,9 C 1,7 C -0,6 C 95 % 1036,3 hPa 0,0 l/m 0 min 0 min 19 W/m 9,7 km/h (2 Bft) 95,61 %
23.01.2023 09:30 1,9 C 1,7 C -0,6 C 95 % 1036,4 hPa 0,0 l/m 0 min 0 min 21 W/m 9,7 km/h (2 Bft) 97,37 %
23.01.2023 09:35 2,0 C 1,7 C -0,6 C 95 % 1036,5 hPa 0,0 l/m 0 min 0 min 20 W/m 12,9 km/h (3 Bft) 95,61 %
23.01.2023 09:40 2,0 C 1,7 C -0,6 C 95 % 1036,5 hPa 0,0 l/m 0 min 0 min 20 W/m 12,9 km/h (3 Bft) 97,37 %
23.01.2023 09:45 2,1 C 1,7 C -0,6 C 94 % 1036,5 hPa 0,0 l/m 0 min 0 min 21 W/m 9,7 km/h (2 Bft) 97,37 %
23.01.2023 09:50 2,1 C 1,7 C -0,6 C 94 % 1036,5 hPa 0,0 l/m 0 min 0 min 27 W/m 6,4 km/h (2 Bft) 97,37 %
23.01.2023 09:55 2,1 C 1,7 C -0,6 C 94 % 1036,6 hPa 0,0 l/m 0 min 0 min 31 W/m 12,9 km/h (3 Bft) 97,37 %
23.01.2023 10:00 2,1 C 1,7 C -0,6 C 94 % 1036,6 hPa 0,0 l/m 0 min 0 min 29 W/m 12,9 km/h (3 Bft) 100,00 %
23.01.2023 10:05 2,2 C 2,2 C -0,6 C 94 % 1036,7 hPa 0,0 l/m 0 min 0 min 30 W/m 6,4 km/h (2 Bft) 98,25 %
23.01.2023 10:10 2,2 C 2,2 C -0,6 C 94 % 1036,6 hPa 0,0 l/m 0 min 0 min 33 W/m 9,7 km/h (2 Bft) 99,12 %
23.01.2023 10:15 2,2 C 2,2 C 0,0 C 94 % 1036,7 hPa 0,0 l/m 0 min 0 min 35 W/m 6,4 km/h (2 Bft) 100,00 %
23.01.2023 10:20 2,3 C 2,2 C 0,0 C 95 % 1036,6 hPa 0,0 l/m 0 min 0 min 46 W/m 9,7 km/h (2 Bft) 99,12 %
23.01.2023 10:25 2,3 C 2,2 C 0,0 C 95 % 1036,7 hPa 0,0 l/m 0 min 0 min 44 W/m 12,9 km/h (3 Bft) 99,12 %
23.01.2023 10:30 2,3 C 2,2 C 0,0 C 94 % 1036,8 hPa 0,0 l/m 0 min 0 min 36 W/m 9,7 km/h (2 Bft) 100,00 %
23.01.2023 10:35 2,3 C 2,2 C 0,0 C 94 % 1036,8 hPa 0,0 l/m 0 min 0 min 45 W/m 6,4 km/h (2 Bft) 100,00 %
23.01.2023 10:40 2,4 C 2,2 C 0,0 C 94 % 1036,9 hPa 0,0 l/m 0 min 0 min 33 W/m 6,4 km/h (2 Bft) 100,00 %
23.01.2023 10:45 2,4 C 2,2 C 0,0 C 94 % 1037,0 hPa 0,0 l/m 0 min 0 min 32 W/m 9,7 km/h (2 Bft) 100,00 %
23.01.2023 10:50 2,4 C 2,2 C 0,0 C 94 % 1037,0 hPa 0,0 l/m 0 min 0 min 42 W/m 12,9 km/h (3 Bft) 100,00 %
23.01.2023 10:55 2,4 C 2,2 C 0,0 C 94 % 1037,0 hPa 0,0 l/m 0 min 0 min 66 W/m 9,7 km/h (2 Bft) 100,00 %
23.01.2023 11:00 2,5 C 2,8 C 0,0 C 94 % 1036,9 hPa 0,0 l/m 0 min 0 min 74 W/m 9,7 km/h (2 Bft) 99,12 %
23.01.2023 11:05 2,6 C 2,8 C 0,0 C 94 % 1036,9 hPa 0,0 l/m 0 min 0 min 58 W/m 6,4 km/h (2 Bft) 100,00 %
23.01.2023 11:10 2,6 C 2,8 C 0,0 C 94 % 1036,9 hPa 0,0 l/m 0 min 0 min 45 W/m 12,9 km/h (3 Bft) 100,00 %
23.01.2023 11:15 2,6 C 2,8 C 0,0 C 94 % 1037,0 hPa 0,0 l/m 0 min 0 min 47 W/m 12,9 km/h (3 Bft) 100,00 %
23.01.2023 11:20 2,6 C 2,2 C 0,0 C 94 % 1037,0 hPa 0,0 l/m 0 min 0 min 40 W/m 12,9 km/h (3 Bft) 99,12 %
23.01.2023 11:25 2,6 C 2,2 C 0,0 C 93 % 1036,9 hPa 0,0 l/m 0 min 0 min 31 W/m 9,7 km/h (2 Bft) 78,07 %
23.01.2023 11:30 2,6 C 2,2 C 0,0 C 93 % 1036,9 hPa 0,0 l/m 0 min 0 min 40 W/m 12,9 km/h (3 Bft) 100,00 %
23.01.2023 11:35 2,6 C 2,8 C 0,0 C 93 % 1036,9 hPa 0,0 l/m 0 min 0 min 53 W/m 12,9 km/h (3 Bft) 99,12 %
23.01.2023 11:40 2,6 C 2,8 C 0,0 C 93 % 1036,9 hPa 0,0 l/m 0 min 0 min 60 W/m 9,7 km/h (2 Bft) 100,00 %
23.01.2023 11:45 2,6 C 2,8 C 0,0 C 93 % 1036,9 hPa 0,0 l/m 0 min 0 min 65 W/m 12,9 km/h (3 Bft) 99,12 %
23.01.2023 11:50 2,7 C 2,8 C 0,6 C 93 % 1036,9 hPa 0,0 l/m 0 min 0 min 67 W/m 6,4 km/h (2 Bft) 100,00 %
23.01.2023 11:55 2,7 C 2,8 C 0,6 C 93 % 1036,9 hPa 0,0 l/m 0 min 0 min 52 W/m 6,4 km/h (2 Bft) 100,00 %
23.01.2023 12:00 2,7 C 2,8 C 0,6 C 92 % 1036,8 hPa 0,0 l/m 0 min 0 min 47 W/m 12,9 km/h (3 Bft) 100,00 %
23.01.2023 12:05 2,7 C 2,8 C 0,6 C 92 % 1036,9 hPa 0,0 l/m 0 min 0 min 55 W/m 12,9 km/h (3 Bft) 100,00 %
23.01.2023 12:10 2,8 C 2,8 C 0,6 C 91 % 1036,9 hPa 0,0 l/m 0 min 0 min 73 W/m 6,4 km/h (2 Bft) 100,00 %
23.01.2023 12:15 2,8 C 3,3 C 0,6 C 91 % 1036,9 hPa 0,0 l/m 0 min 0 min 75 W/m 9,7 km/h (2 Bft) 99,12 %
23.01.2023 12:20 2,9 C 3,3 C 0,6 C 91 % 1036,7 hPa 0,0 l/m 0 min 0 min 82 W/m 9,7 km/h (2 Bft) 81,58 %
23.01.2023 12:25 3,0 C 3,3 C 0,6 C 91 % 1036,8 hPa 0,0 l/m 0 min 0 min 74 W/m 9,7 km/h (2 Bft) 98,25 %
23.01.2023 12:30 3,1 C 3,3 C 0,6 C 91 % 1036,8 hPa 0,0 l/m 0 min 0 min 72 W/m 9,7 km/h (2 Bft) 99,12 %
23.01.2023 12:35 3,1 C 3,3 C 0,6 C 90 % 1036,8 hPa 0,0 l/m 0 min 0 min 79 W/m 6,4 km/h (2 Bft) 97,37 %
23.01.2023 12:40 3,1 C 3,3 C 0,6 C 90 % 1036,7 hPa 0,0 l/m 0 min 0 min 81 W/m 6,4 km/h (2 Bft) 100,00 %
23.01.2023 12:45 3,2 C 3,3 C 0,6 C 90 % 1036,8 hPa 0,0 l/m 0 min 0 min 71 W/m 9,7 km/h (2 Bft) 99,12 %
23.01.2023 12:50 3,2 C 3,3 C 0,6 C 90 % 1036,8 hPa 0,0 l/m 0 min 0 min 69 W/m 9,7 km/h (2 Bft) 100,00 %
23.01.2023 12:55 3,2 C 3,3 C 0,6 C 89 % 1036,8 hPa 0,0 l/m 0 min 0 min 71 W/m 9,7 km/h (2 Bft) 100,00 %
23.01.2023 13:00 3,2 C 3,3 C 0,6 C 89 % 1036,7 hPa 0,0 l/m 0 min 0 min 82 W/m 6,4 km/h (2 Bft) 99,12 %
23.01.2023 13:05 3,3 C 3,3 C 0,6 C 90 % 1036,8 hPa 0,0 l/m 0 min 0 min 81 W/m 9,7 km/h (2 Bft) 99,12 %
23.01.2023 13:10 3,3 C 3,3 C 0,6 C 89 % 1036,7 hPa 0,0 l/m 0 min 0 min 86 W/m 9,7 km/h (2 Bft) 100,00 %
23.01.2023 13:15 3,3 C 3,9 C 1,1 C 89 % 1036,7 hPa 0,0 l/m 0 min 0 min 94 W/m 12,9 km/h (3 Bft) 100,00 %
23.01.2023 13:20 3,3 C 3,9 C 1,1 C 89 % 1036,7 hPa 0,0 l/m 0 min 0 min 91 W/m 9,7 km/h (2 Bft) 97,37 %
23.01.2023 13:25 3,4 C 3,9 C 1,1 C 89 % 1036,7 hPa 0,0 l/m 0 min 0 min 79 W/m 12,9 km/h (3 Bft) 100,00 %
23.01.2023 13:30 3,4 C 3,3 C 0,6 C 88 % 1036,7 hPa 0,0 l/m 0 min 0 min 72 W/m 9,7 km/h (2 Bft) 99,12 %
23.01.2023 13:35 3,4 C 3,3 C 0,6 C 88 % 1036,6 hPa 0,0 l/m 0 min 0 min 63 W/m 9,7 km/h (2 Bft) 98,25 %
23.01.2023 13:40 3,4 C 3,3 C 0,6 C 88 % 1036,6 hPa 0,0 l/m 0 min 0 min 50 W/m 9,7 km/h (2 Bft) 99,12 %
23.01.2023 13:45 3,4 C 3,3 C 0,6 C 88 % 1036,6 hPa 0,0 l/m 0 min 0 min 45 W/m 9,7 km/h (2 Bft) 99,12 %
23.01.2023 13:50 3,4 C 3,3 C 0,6 C 87 % 1036,6 hPa 0,0 l/m 0 min 0 min 40 W/m 6,4 km/h (2 Bft) 100,00 %
23.01.2023 13:55 3,4 C 3,3 C 0,6 C 87 % 1036,6 hPa 0,0 l/m 0 min 0 min 42 W/m 6,4 km/h (2 Bft) 100,00 %
23.01.2023 14:00 3,3 C 2,8 C 0,6 C 87 % 1036,5 hPa 0,0 l/m 0 min 0 min 43 W/m 12,9 km/h (3 Bft) 100,00 %
23.01.2023 14:05 3,3 C 3,3 C 0,6 C 87 % 1036,6 hPa 0,0 l/m 0 min 0 min 46 W/m 16,1 km/h (3 Bft) 100,00 %
23.01.2023 14:10 3,3 C 3,3 C 0,6 C 87 % 1036,7 hPa 0,0 l/m 0 min 0 min 49 W/m 12,9 km/h (3 Bft) 100,00 %
23.01.2023 14:15 3,3 C 3,3 C 0,6 C 87 % 1036,6 hPa 0,0 l/m 0 min 0 min 58 W/m 12,9 km/h (3 Bft) 100,00 %
23.01.2023 14:20 3,3 C 3,3 C 0,6 C 86 % 1036,7 hPa 0,0 l/m 0 min 0 min 61 W/m 12,9 km/h (3 Bft) 100,00 %
23.01.2023 14:25 3,3 C 3,3 C 0,6 C 86 % 1036,7 hPa 0,0 l/m 0 min 0 min 66 W/m 9,7 km/h (2 Bft) 100,00 %
23.01.2023 14:30 3,3 C 3,3 C 0,6 C 86 % 1036,7 hPa 0,0 l/m 0 min 0 min 74 W/m 9,7 km/h (2 Bft) 100,00 %
23.01.2023 14:35 3,3 C 3,3 C 0,6 C 86 % 1036,6 hPa 0,0 l/m 0 min 0 min 74 W/m 12,9 km/h (3 Bft) 100,00 %
23.01.2023 14:40 3,4 C 3,3 C 0,6 C 86 % 1036,6 hPa 0,0 l/m 0 min 0 min 69 W/m 9,7 km/h (2 Bft) 100,00 %
23.01.2023 14:45 3,4 C 3,3 C 0,6 C 85 % 1036,7 hPa 0,0 l/m 0 min 0 min 53 W/m 6,4 km/h (2 Bft) 99,12 %
23.01.2023 14:50 3,4 C 3,3 C 0,6 C 85 % 1036,7 hPa 0,0 l/m 0 min 0 min 46 W/m 9,7 km/h (2 Bft) 98,25 %
23.01.2023 14:55 3,4 C 3,3 C 0,6 C 85 % 1036,8 hPa 0,0 l/m 0 min 0 min 40 W/m 9,7 km/h (2 Bft) 99,12 %
23.01.2023 15:00 3,4 C 3,3 C 0,6 C 86 % 1036,8 hPa 0,0 l/m 0 min 0 min 44 W/m 9,7 km/h (2 Bft) 99,12 %
23.01.2023 15:05 3,4 C 3,3 C 0,6 C 86 % 1036,7 hPa 0,0 l/m 0 min 0 min 52 W/m 9,7 km/h (2 Bft) 100,00 %
23.01.2023 15:10 3,4 C 3,3 C 0,6 C 86 % 1036,8 hPa 0,0 l/m 0 min 0 min 56 W/m 9,7 km/h (2 Bft) 98,25 %
23.01.2023 15:15 3,4 C 3,3 C 0,6 C 86 % 1036,8 hPa 0,0 l/m 0 min 0 min 46 W/m 9,7 km/h (2 Bft) 99,12 %
23.01.2023 15:20 3,4 C 3,3 C 0,6 C 86 % 1036,9 hPa 0,0 l/m 0 min 0 min 37 W/m 9,7 km/h (2 Bft) 94,74 %
23.01.2023 15:25 3,3 C 3,3 C 0,6 C 86 % 1036,9 hPa 0,0 l/m 0 min 0 min 33 W/m 9,7 km/h (2 Bft) 97,37 %
23.01.2023 15:30 3,3 C 2,8 C 0,6 C 85 % 1036,9 hPa 0,0 l/m 0 min 0 min 28 W/m 12,9 km/h (3 Bft) 96,49 %
23.01.2023 15:35 3,3 C 2,8 C 0,0 C 86 % 1036,9 hPa 0,0 l/m 0 min 0 min 26 W/m 6,4 km/h (2 Bft) 96,49 %
23.01.2023 15:40 3,3 C 2,8 C 0,0 C 86 % 1036,9 hPa 0,0 l/m 0 min 0 min 24 W/m 6,4 km/h (2 Bft) 97,37 %
23.01.2023 15:45 3,3 C 2,8 C 0,0 C 86 % 1036,9 hPa 0,0 l/m 0 min 0 min 21 W/m 0,0 km/h (0 Bft) 96,49 %
23.01.2023 15:50 3,3 C 2,8 C 0,0 C 86 % 1037,0 hPa 0,0 l/m 0 min 0 min 18 W/m 0,0 km/h (0 Bft) 100,00 %
23.01.2023 15:55 3,3 C 2,8 C 0,0 C 86 % 1036,9 hPa 0,0 l/m 0 min 0 min 18 W/m 0,0 km/h (0 Bft) 100,00 %
23.01.2023 16:00 3,3 C 2,8 C 0,0 C 87 % 1036,9 hPa 0,0 l/m 0 min 0 min 18 W/m 0,0 km/h (0 Bft) 100,00 %
23.01.2023 16:05 3,3 C 2,8 C 0,0 C 87 % 1037,0 hPa 0,0 l/m 0 min 0 min 18 W/m 9,7 km/h (2 Bft) 100,00 %
23.01.2023 16:10 3,3 C 2,8 C 0,0 C 87 % 1037,0 hPa 0,0 l/m 0 min 0 min 16 W/m 6,4 km/h (2 Bft) 100,00 %
23.01.2023 16:15 3,3 C 2,8 C 0,0 C 87 % 1037,1 hPa 0,0 l/m 0 min 0 min 13 W/m 9,7 km/h (2 Bft) 100,00 %
23.01.2023 16:20 3,3 C 2,8 C 0,0 C 87 % 1037,0 hPa 0,0 l/m 0 min 0 min 10 W/m 6,4 km/h (2 Bft) 100,00 %
23.01.2023 16:25 3,3 C 2,8 C 0,0 C 87 % 1037,1 hPa 0,0 l/m 0 min 0 min 8 W/m 6,4 km/h (2 Bft) 100,00 %
23.01.2023 16:30 3,2 C 2,8 C 0,0 C 88 % 1037,0 hPa 0,0 l/m 0 min 0 min 6 W/m 9,7 km/h (2 Bft) 100,00 %
23.01.2023 16:35 3,2 C 2,8 C 0,0 C 88 % 1037,0 hPa 0,0 l/m 0 min 0 min 5 W/m 6,4 km/h (2 Bft) 100,00 %
23.01.2023 16:40 3,2 C 2,8 C 0,0 C 88 % 1037,0 hPa 0,0 l/m 0 min 0 min 5 W/m 6,4 km/h (2 Bft) 100,00 %
23.01.2023 16:45 3,2 C 2,8 C 0,0 C 88 % 1036,9 hPa 0,0 l/m 0 min 0 min 1 W/m 9,7 km/h (2 Bft) 100,00 %
23.01.2023 16:50 3,2 C 2,8 C 0,0 C 88 % 1036,9 hPa 0,0 l/m 0 min 0 min 0 W/m 12,9 km/h (3 Bft) 99,12 %
23.01.2023 16:55 3,1 C 2,8 C 0,0 C 87 % 1036,9 hPa 0,0 l/m 0 min 0 min 0 W/m 16,1 km/h (3 Bft) 100,00 %
23.01.2023 17:00 3,1 C 2,8 C 0,0 C 87 % 1036,9 hPa 0,0 l/m 0 min 0 min 0 W/m 12,9 km/h (3 Bft) 100,00 %
23.01.2023 17:05 3,1 C 2,8 C 0,0 C 87 % 1036,6 hPa 0,0 l/m 0 min 0 min 0 W/m 19,3 km/h (3 Bft) 100,00 %
23.01.2023 17:10 3,1 C 2,8 C 0,0 C 86 % 1036,7 hPa 0,0 l/m 0 min 0 min 0 W/m 19,3 km/h (3 Bft) 100,00 %
23.01.2023 17:15 3,1 C 2,8 C 0,0 C 86 % 1036,6 hPa 0,0 l/m 0 min 0 min 0 W/m 19,3 km/h (3 Bft) 99,12 %
23.01.2023 17:20 3,0 C 2,2 C 0,0 C 86 % 1036,6 hPa 0,0 l/m 0 min 0 min 0 W/m 19,3 km/h (3 Bft) 100,00 %
23.01.2023 17:25 3,0 C 2,2 C -0,6 C 86 % 1036,7 hPa 0,0 l/m 0 min 0 min 0 W/m 9,7 km/h (2 Bft) 99,12 %
23.01.2023 17:30 2,9 C 2,2 C -0,6 C 86 % 1036,6 hPa 0,0 l/m 0 min 0 min 0 W/m 16,1 km/h (3 Bft) 99,12 %
23.01.2023 17:35 2,9 C 2,2 C -0,6 C 86 % 1036,5 hPa 0,0 l/m 0 min 0 min 0 W/m 22,5 km/h (4 Bft) 95,61 %
23.01.2023 17:40 2,9 C 2,2 C -0,6 C 86 % 1036,7 hPa 0,0 l/m 0 min 0 min 0 W/m 19,3 km/h (3 Bft) 96,49 %
23.01.2023 17:45 2,9 C 2,2 C -0,6 C 85 % 1036,8 hPa 0,0 l/m 0 min 0 min 0 W/m 12,9 km/h (3 Bft) 99,12 %
23.01.2023 17:50 2,9 C 2,2 C -0,6 C 85 % 1036,8 hPa 0,0 l/m 0 min 0 min 0 W/m 16,1 km/h (3 Bft) 98,25 %
23.01.2023 17:55 2,9 C 2,2 C -0,6 C 85 % 1036,8 hPa 0,0 l/m 0 min 0 min 0 W/m 16,1 km/h (3 Bft) 97,37 %
23.01.2023 18:00 2,8 C 2,2 C -0,6 C 86 % 1036,9 hPa 0,0 l/m 0 min 0 min 0 W/m 12,9 km/h (3 Bft) 97,37 %
23.01.2023 18:05 2,8 C 2,2 C -0,6 C 86 % 1036,8 hPa 0,0 l/m 0 min 0 min 0 W/m 16,1 km/h (3 Bft) 99,12 %
23.01.2023 18:10 2,8 C 2,2 C -0,6 C 86 % 1036,9 hPa 0,0 l/m 0 min 0 min 0 W/m 12,9 km/h (3 Bft) 95,61 %
23.01.2023 18:15 2,8 C 2,2 C -0,6 C 86 % 1037,0 hPa 0,0 l/m 0 min 0 min 0 W/m 12,9 km/h (3 Bft) 76,32 %
23.01.2023 18:20 2,8 C 2,2 C -0,6 C 86 % 1037,1 hPa 0,0 l/m 0 min 0 min 0 W/m 12,9 km/h (3 Bft) 95,61 %
23.01.2023 18:25 2,8 C 2,2 C -0,6 C 86 % 1037,1 hPa 0,0 l/m 0 min 0 min 0 W/m 16,1 km/h (3 Bft) 99,12 %
23.01.2023 18:30 2,8 C 2,2 C -0,6 C 86 % 1036,9 hPa 0,0 l/m 0 min 0 min 0 W/m 22,5 km/h (4 Bft) 99,12 %
23.01.2023 18:35 2,8 C 2,2 C -0,6 C 86 % 1037,0 hPa 0,0 l/m 0 min 0 min 0 W/m 16,1 km/h (3 Bft) 100,00 %
23.01.2023 18:40 2,8 C 2,2 C -0,6 C 86 % 1037,0 hPa 0,0 l/m 0 min 0 min 0 W/m 16,1 km/h (3 Bft) 100,00 %
23.01.2023 18:45 2,7 C 2,2 C -0,6 C 86 % 1036,9 hPa 0,0 l/m 0 min 0 min 0 W/m 19,3 km/h (3 Bft) 100,00 %
23.01.2023 18:50 2,7 C 2,2 C -0,6 C 86 % 1036,9 hPa 0,0 l/m 0 min 0 min 0 W/m 16,1 km/h (3 Bft) 100,00 %
23.01.2023 18:55 2,7 C 2,2 C -0,6 C 86 % 1036,9 hPa 0,0 l/m 0 min 0 min 0 W/m 19,3 km/h (3 Bft) 100,00 %
23.01.2023 19:00 2,7 C 2,2 C -0,6 C 86 % 1037,0 hPa 0,0 l/m 0 min 0 min 0 W/m 12,9 km/h (3 Bft) 100,00 %
23.01.2023 19:05 2,6 C 2,2 C -0,6 C 87 % 1036,9 hPa 0,0 l/m 0 min 0 min 0 W/m 16,1 km/h (3 Bft) 100,00 %
23.01.2023 19:10 2,6 C 2,2 C -0,6 C 87 % 1037,0 hPa 0,0 l/m 0 min 0 min 0 W/m 16,1 km/h (3 Bft) 100,00 %
23.01.2023 19:15 2,6 C 2,2 C -0,6 C 87 % 1037,0 hPa 0,0 l/m 0 min 0 min 0 W/m 12,9 km/h (3 Bft) 99,12 %
23.01.2023 19:20 2,6 C 2,2 C -0,6 C 87 % 1037,0 hPa 0,0 l/m 0 min 0 min 0 W/m 16,1 km/h (3 Bft) 98,25 %
23.01.2023 19:25 2,6 C 2,2 C -0,6 C 87 % 1036,9 hPa 0,0 l/m 0 min 0 min 0 W/m 16,1 km/h (3 Bft) 100,00 %
23.01.2023 19:30 2,6 C 2,2 C -0,6 C 87 % 1036,9 hPa 0,0 l/m 0 min 0 min 0 W/m 9,7 km/h (2 Bft) 99,12 %
23.01.2023 19:35 2,6 C 2,2 C -0,6 C 87 % 1037,0 hPa 0,0 l/m 0 min 0 min 0 W/m 9,7 km/h (2 Bft) 97,37 %
23.01.2023 19:40 2,6 C 2,2 C -0,6 C 88 % 1037,1 hPa 0,0 l/m 0 min 0 min 0 W/m 12,9 km/h (3 Bft) 100,00 %
23.01.2023 19:45 2,5 C 2,2 C -0,6 C 88 % 1037,2 hPa 0,0 l/m 0 min 0 min 0 W/m 9,7 km/h (2 Bft) 100,00 %
23.01.2023 19:50 2,5 C 2,2 C -1,1 C 88 % 1037,2 hPa 0,0 l/m 0 min 0 min 0 W/m 12,9 km/h (3 Bft) 100,00 %
23.01.2023 19:55 2,5 C 2,2 C -1,1 C 88 % 1037,1 hPa 0,0 l/m 0 min 0 min 0 W/m 12,9 km/h (3 Bft) 100,00 %
23.01.2023 20:00 2,5 C 2,2 C -0,6 C 88 % 1037,2 hPa 0,0 l/m 0 min 0 min 0 W/m 12,9 km/h (3 Bft) 100,00 %
23.01.2023 20:05 2,5 C 2,2 C -0,6 C 88 % 1037,2 hPa 0,0 l/m 0 min 0 min 0 W/m 12,9 km/h (3 Bft) 100,00 %
23.01.2023 20:10 2,5 C 2,2 C -0,6 C 88 % 1037,3 hPa 0,0 l/m 0 min 0 min 0 W/m 9,7 km/h (2 Bft) 100,00 %
23.01.2023 20:15 2,5 C 2,2 C -0,6 C 88 % 1037,4 hPa 0,0 l/m 0 min 0 min 0 W/m 9,7 km/h (2 Bft) 100,00 %
23.01.2023 20:20 2,4 C 2,2 C -0,6 C 88 % 1037,4 hPa 0,0 l/m 0 min 0 min 0 W/m 12,9 km/h (3 Bft) 100,00 %
23.01.2023 20:25 2,5 C 2,2 C -0,6 C 88 % 1037,4 hPa 0,0 l/m 0 min 0 min 0 W/m 9,7 km/h (2 Bft) 100,00 %
23.01.2023 20:30 2,5 C 2,2 C -0,6 C 88 % 1037,4 hPa 0,0 l/m 0 min 0 min 0 W/m 6,4 km/h (2 Bft) 100,00 %
23.01.2023 20:35 2,5 C 2,2 C -0,6 C 89 % 1037,3 hPa 0,0 l/m 0 min 0 min 0 W/m 3,2 km/h (1 Bft) 98,25 %
23.01.2023 20:40 2,6 C 2,2 C -0,6 C 89 % 1037,4 hPa 0,0 l/m 0 min 0 min 0 W/m 6,4 km/h (2 Bft) 97,37 %
23.01.2023 21:06 2,6 C 2,2 C -0,6 C 89 % 1037,6 hPa 0,0 l/m 0 min 0 min 0 W/m 3,2 km/h (1 Bft) 66,67 %
23.01.2023 21:08 2,6 C 2,2 C -0,6 C 89 % 1037,6 hPa 0,0 l/m 0 min 0 min 0 W/m 9,7 km/h (2 Bft) 100,00 %
23.01.2023 21:10 2,6 C 2,2 C -0,6 C 89 % 1037,6 hPa 0,0 l/m 0 min 0 min 0 W/m 12,9 km/h (3 Bft) 97,87 %
23.01.2023 21:12 2,6 C 2,2 C -0,6 C 89 % 1037,6 hPa 0,0 l/m 0 min 0 min 0 W/m 9,7 km/h (2 Bft) 91,49 %
23.01.2023 21:14 2,6 C 2,2 C -0,6 C 89 % 1037,6 hPa 0,0 l/m 0 min 0 min 0 W/m 12,9 km/h (3 Bft) 97,14 %
23.01.2023 21:16 2,6 C 2,2 C -0,6 C 89 % 1037,7 hPa 0,0 l/m 0 min 0 min 0 W/m 9,7 km/h (2 Bft) 89,80 %
23.01.2023 21:18 2,6 C 2,2 C -0,6 C 89 % 1037,7 hPa 0,0 l/m 0 min 0 min 0 W/m 6,4 km/h (2 Bft) 95,74 %
23.01.2023 21:20 2,7 C 2,2 C -0,6 C 89 % 1037,7 hPa 0,0 l/m 0 min 0 min 0 W/m 3,2 km/h (1 Bft) 95,74 %
23.01.2023 21:22 2,7 C 2,2 C -0,6 C 89 % 1037,7 hPa 0,0 l/m 0 min 0 min 0 W/m 12,9 km/h (3 Bft) 95,74 %
23.01.2023 21:24 2,7 C 2,2 C -0,6 C 89 % 1037,8 hPa 0,0 l/m 0 min 0 min 0 W/m 6,4 km/h (2 Bft) 95,74 %
23.01.2023 21:26 2,7 C 2,2 C -0,6 C 89 % 1037,7 hPa 0,0 l/m 0 min 0 min 0 W/m 6,4 km/h (2 Bft) 93,62 %
23.01.2023 21:28 2,7 C 2,2 C -0,6 C 89 % 1037,8 hPa 0,0 l/m 0 min 0 min 0 W/m 9,7 km/h (2 Bft) 97,83 %
23.01.2023 21:30 2,7 C 2,2 C -0,6 C 89 % 1037,7 hPa 0,0 l/m 0 min 0 min 0 W/m 9,7 km/h (2 Bft) 100,00 %
23.01.2023 21:32 2,7 C 2,2 C -0,6 C 89 % 1037,7 hPa 0,0 l/m 0 min 0 min 0 W/m 9,7 km/h (2 Bft) 100,00 %
23.01.2023 21:34 2,7 C 2,2 C -0,6 C 89 % 1037,7 hPa 0,0 l/m 0 min 0 min 0 W/m 6,4 km/h (2 Bft) 97,87 %
23.01.2023 21:36 2,7 C 2,2 C -0,6 C 89 % 1037,7 hPa 0,0 l/m 0 min 0 min 0 W/m 6,4 km/h (2 Bft) 100,00 %
23.01.2023 21:38 2,7 C 2,2 C -0,6 C 89 % 1037,7 hPa 0,0 l/m 0 min 0 min 0 W/m 6,4 km/h (2 Bft) 100,00 %
23.01.2023 21:40 2,7 C 2,2 C -0,6 C 89 % 1037,7 hPa 0,0 l/m 0 min 0 min 0 W/m 6,4 km/h (2 Bft) 97,83 %
23.01.2023 21:42 2,7 C 2,2 C -0,6 C 89 % 1037,7 hPa 0,0 l/m 0 min 0 min 0 W/m 12,9 km/h (3 Bft) 100,00 %
23.01.2023 21:44 2,7 C 2,2 C -0,6 C 89 % 1037,7 hPa 0,0 l/m 0 min 0 min 0 W/m 12,9 km/h (3 Bft) 97,87 %
23.01.2023 21:46 2,7 C 2,2 C -0,6 C 89 % 1037,7 hPa 0,0 l/m 0 min 0 min 0 W/m 16,1 km/h (3 Bft) 100,00 %
23.01.2023 21:48 2,7 C 2,2 C -0,6 C 89 % 1037,8 hPa 0,0 l/m 0 min 0 min 0 W/m 16,1 km/h (3 Bft) 100,00 %
23.01.2023 21:50 2,7 C 2,2 C -0,6 C 89 % 1037,8 hPa 0,0 l/m 0 min 0 min 0 W/m 9,7 km/h (2 Bft) 97,83 %
23.01.2023 21:52 2,7 C 2,2 C -0,6 C 89 % 1037,7 hPa 0,0 l/m 0 min 0 min 0 W/m 12,9 km/h (3 Bft) 100,00 %
23.01.2023 21:54 2,7 C 2,2 C -0,6 C 89 % 1037,7 hPa 0,0 l/m 0 min 0 min 0 W/m 9,7 km/h (2 Bft) 100,00 %
23.01.2023 21:56 2,7 C 2,2 C -0,6 C 89 % 1037,7 hPa 0,0 l/m 0 min 0 min 0 W/m 12,9 km/h (3 Bft) 100,00 %
23.01.2023 21:58 2,7 C 2,2 C -0,6 C 89 % 1037,8 hPa 0,0 l/m 0 min 0 min 0 W/m 12,9 km/h (3 Bft) 97,87 %
23.01.2023 22:00 2,7 C 2,2 C -0,6 C 88 % 1037,7 hPa 0,0 l/m 0 min 0 min 0 W/m 12,9 km/h (3 Bft) 100,00 %
23.01.2023 22:02 2,7 C 2,2 C -0,6 C 88 % 1037,6 hPa 0,0 l/m 0 min 0 min 0 W/m 16,1 km/h (3 Bft) 100,00 %
23.01.2023 22:04 2,7 C 2,2 C -0,6 C 88 % 1037,7 hPa 0,0 l/m 0 min 0 min 0 W/m 12,9 km/h (3 Bft) 100,00 %
23.01.2023 22:06 2,7 C 2,2 C -0,6 C 88 % 1037,6 hPa 0,0 l/m 0 min 0 min 0 W/m 16,1 km/h (3 Bft) 100,00 %
23.01.2023 22:08 2,7 C 2,2 C -0,6 C 88 % 1037,6 hPa 0,0 l/m 0 min 0 min 0 W/m 12,9 km/h (3 Bft) 100,00 %
23.01.2023 22:10 2,7 C 2,2 C -0,6 C 88 % 1037,6 hPa 0,0 l/m 0 min 0 min 0 W/m 12,9 km/h (3 Bft) 100,00 %
23.01.2023 22:12 2,7 C 2,2 C -0,6 C 88 % 1037,6 hPa 0,0 l/m 0 min 0 min 0 W/m 12,9 km/h (3 Bft) 100,00 %
23.01.2023 22:14 2,7 C 2,2 C -0,6 C 88 % 1037,6 hPa 0,0 l/m 0 min 0 min 0 W/m 9,7 km/h (2 Bft) 100,00 %
23.01.2023 22:16 2,7 C 2,2 C -0,6 C 88 % 1037,6 hPa 0,0 l/m 0 min 0 min 0 W/m 12,9 km/h (3 Bft) 100,00 %
23.01.2023 22:18 2,7 C 2,2 C -0,6 C 88 % 1037,6 hPa 0,0 l/m 0 min 0 min 0 W/m 9,7 km/h (2 Bft) 97,87 %
23.01.2023 22:20 2,7 C 2,2 C -0,6 C 88 % 1037,6 hPa 0,0 l/m 0 min 0 min 0 W/m 12,9 km/h (3 Bft) 100,00 %
23.01.2023 22:22 2,7 C 2,2 C -0,6 C 88 % 1037,6 hPa 0,0 l/m 0 min 0 min 0 W/m 9,7 km/h (2 Bft) 100,00 %
23.01.2023 22:24 2,8 C 2,2 C -0,6 C 88 % 1037,5 hPa 0,0 l/m 0 min 0 min 0 W/m 9,7 km/h (2 Bft) 97,87 %
23.01.2023 22:26 2,8 C 2,2 C -0,6 C 88 % 1037,5 hPa 0,0 l/m 0 min 0 min 0 W/m 16,1 km/h (3 Bft) 100,00 %
23.01.2023 22:28 2,8 C 2,2 C -0,6 C 88 % 1037,5 hPa 0,0 l/m 0 min 0 min 0 W/m 19,3 km/h (3 Bft) 100,00 %
23.01.2023 22:30 2,8 C 2,2 C -0,6 C 88 % 1037,5 hPa 0,0 l/m 0 min 0 min 0 W/m 16,1 km/h (3 Bft) 97,87 %
23.01.2023 22:32 2,8 C 2,2 C -0,6 C 88 % 1037,5 hPa 0,0 l/m 0 min 0 min 0 W/m 12,9 km/h (3 Bft) 100,00 %
23.01.2023 22:34 2,8 C 2,2 C -0,6 C 88 % 1037,5 hPa 0,0 l/m 0 min 0 min 0 W/m 9,7 km/h (2 Bft) 100,00 %
23.01.2023 22:36 2,8 C 2,2 C -0,6 C 88 % 1037,5 hPa 0,0 l/m 0 min 0 min 0 W/m 16,1 km/h (3 Bft) 95,74 %
23.01.2023 22:38 2,8 C 2,2 C -0,6 C 88 % 1037,5 hPa 0,0 l/m 0 min 0 min 0 W/m 19,3 km/h (3 Bft) 95,74 %
23.01.2023 22:40 2,8 C 2,2 C -0,6 C 88 % 1037,6 hPa 0,0 l/m 0 min 0 min 0 W/m 9,7 km/h (2 Bft) 95,74 %
23.01.2023 22:42 2,8 C 2,2 C -0,6 C 88 % 1037,6 hPa 0,0 l/m 0 min 0 min 0 W/m 9,7 km/h (2 Bft) 97,87 %
23.01.2023 22:44 2,8 C 2,2 C -0,6 C 88 % 1037,6 hPa 0,0 l/m 0 min 0 min 0 W/m 12,9 km/h (3 Bft) 80,85 %
23.01.2023 22:46 2,8 C 2,2 C -0,6 C 88 % 1037,5 hPa 0,0 l/m 0 min 0 min 0 W/m 6,4 km/h (2 Bft) 58,62 %
23.01.2023 22:48 2,8 C 2,2 C -0,6 C 88 % 1037,6 hPa 0,0 l/m 0 min 0 min 0 W/m 9,7 km/h (2 Bft) 93,62 %
23.01.2023 22:50 2,8 C 2,2 C -0,6 C 88 % 1037,6 hPa 0,0 l/m 0 min 0 min 0 W/m 9,7 km/h (2 Bft) 97,87 %
23.01.2023 22:52 2,8 C 2,2 C -0,6 C 88 % 1037,5 hPa 0,0 l/m 0 min 0 min 0 W/m 12,9 km/h (3 Bft) 93,62 %
23.01.2023 22:54 2,8 C 2,2 C -0,6 C 88 % 1037,5 hPa 0,0 l/m 0 min 0 min 0 W/m 9,7 km/h (2 Bft) 95,74 %
23.01.2023 22:56 2,8 C 2,2 C -0,6 C 88 % 1037,6 hPa 0,0 l/m 0 min 0 min 0 W/m 9,7 km/h (2 Bft) 93,62 %
23.01.2023 22:58 2,8 C 2,2 C -0,6 C 88 % 1037,5 hPa 0,0 l/m 0 min 0 min 0 W/m 12,9 km/h (3 Bft) 91,49 %
23.01.2023 23:00 2,8 C 2,2 C -0,6 C 88 % 1037,5 hPa 0,0 l/m 0 min 0 min 0 W/m 16,1 km/h (3 Bft) 93,48 %
23.01.2023 23:02 2,8 C 2,2 C -0,6 C 88 % 1037,5 hPa 0,0 l/m 0 min 0 min 0 W/m 12,9 km/h (3 Bft) 95,74 %
23.01.2023 23:04 2,8 C 2,2 C -0,6 C 88 % 1037,5 hPa 0,0 l/m 0 min 0 min 0 W/m 12,9 km/h (3 Bft) 95,74 %
23.01.2023 23:06 2,8 C 2,2 C -0,6 C 88 % 1037,5 hPa 0,0 l/m 0 min 0 min 0 W/m 9,7 km/h (2 Bft) 95,74 %
23.01.2023 23:08 2,8 C 2,2 C -0,6 C 88 % 1037,5 hPa 0,0 l/m 0 min 0 min 0 W/m 12,9 km/h (3 Bft) 95,74 %
23.01.2023 23:10 2,8 C 2,2 C -0,6 C 88 % 1037,5 hPa 0,0 l/m 0 min 0 min 0 W/m 9,7 km/h (2 Bft) 95,74 %
23.01.2023 23:12 2,8 C 2,2 C -0,6 C 88 % 1037,5 hPa 0,0 l/m 0 min 0 min 0 W/m 12,9 km/h (3 Bft) 91,49 %
23.01.2023 23:14 2,8 C 2,2 C -0,6 C 88 % 1037,6 hPa 0,0 l/m 0 min 0 min 0 W/m 12,9 km/h (3 Bft) 95,65 %
23.01.2023 23:16 2,8 C 2,2 C -0,6 C 88 % 1037,5 hPa 0,0 l/m 0 min 0 min 0 W/m 9,7 km/h (2 Bft) 97,87 %
23.01.2023 23:18 2,8 C 2,2 C -0,6 C 88 % 1037,5 hPa 0,0 l/m 0 min 0 min 0 W/m 9,7 km/h (2 Bft) 97,87 %
23.01.2023 23:20 2,8 C 2,2 C -0,6 C 88 % 1037,5 hPa 0,0 l/m 0 min 0 min 0 W/m 9,7 km/h (2 Bft) 95,74 %
23.01.2023 23:22 2,8 C 2,2 C -0,6 C 88 % 1037,5 hPa 0,0 l/m 0 min 0 min 0 W/m 9,7 km/h (2 Bft) 95,74 %
23.01.2023 23:24 2,8 C 2,2 C -0,6 C 88 % 1037,5 hPa 0,0 l/m 0 min 0 min 0 W/m 9,7 km/h (2 Bft) 97,87 %
23.01.2023 23:26 2,8 C 2,2 C -0,6 C 88 % 1037,5 hPa 0,0 l/m 0 min 0 min 0 W/m 9,7 km/h (2 Bft) 97,83 %
23.01.2023 23:28 2,8 C 2,2 C -0,6 C 88 % 1037,5 hPa 0,0 l/m 0 min 0 min 0 W/m 12,9 km/h (3 Bft) 95,74 %
23.01.2023 23:30 2,8 C 2,2 C -0,6 C 88 % 1037,5 hPa 0,0 l/m 0 min 0 min 0 W/m 12,9 km/h (3 Bft) 97,87 %
23.01.2023 23:32 2,8 C 2,2 C -0,6 C 88 % 1037,5 hPa 0,0 l/m 0 min 0 min 0 W/m 9,7 km/h (2 Bft) 95,74 %
23.01.2023 23:34 2,8 C 2,2 C -0,6 C 88 % 1037,5 hPa 0,0 l/m 0 min 0 min 0 W/m 12,9 km/h (3 Bft) 97,87 %
23.01.2023 23:36 2,8 C 2,2 C -0,6 C 88 % 1037,5 hPa 0,0 l/m 0 min 0 min 0 W/m 9,7 km/h (2 Bft) 97,87 %
23.01.2023 23:38 2,8 C 2,2 C -0,6 C 88 % 1037,6 hPa 0,0 l/m 0 min 0 min 0 W/m 12,9 km/h (3 Bft) 95,65 %
23.01.2023 23:40 2,8 C 2,2 C -0,6 C 88 % 1037,5 hPa 0,0 l/m 0 min 0 min 0 W/m 22,5 km/h (4 Bft) 100,00 %
23.01.2023 23:42 2,8 C 2,2 C -0,6 C 88 % 1037,6 hPa 0,0 l/m 0 min 0 min 0 W/m 9,7 km/h (2 Bft) 100,00 %
23.01.2023 23:44 2,8 C 2,2 C -0,6 C 88 % 1037,6 hPa 0,0 l/m 0 min 0 min 0 W/m 12,9 km/h (3 Bft) 100,00 %
23.01.2023 23:46 2,8 C 2,2 C -0,6 C 88 % 1037,6 hPa 0,0 l/m 0 min 0 min 0 W/m 9,7 km/h (2 Bft) 97,87 %
23.01.2023 23:48 2,8 C 2,2 C -0,6 C 88 % 1037,6 hPa 0,0 l/m 0 min 0 min 0 W/m 6,4 km/h (2 Bft) 95,74 %
23.01.2023 23:50 2,8 C 2,2 C -0,6 C 88 % 1037,6 hPa 0,0 l/m 0 min 0 min 0 W/m 6,4 km/h (2 Bft) 95,74 %
23.01.2023 23:52 2,8 C 2,2 C -0,6 C 88 % 1037,6 hPa 0,0 l/m 0 min 0 min 0 W/m 9,7 km/h (2 Bft) 97,83 %
23.01.2023 23:54 2,8 C 2,2 C -0,6 C 88 % 1037,6 hPa 0,0 l/m 0 min 0 min 0 W/m 6,4 km/h (2 Bft) 96,00 %
23.01.2023 23:56 2,8 C 2,2 C -0,6 C 88 % 1037,5 hPa 0,0 l/m 0 min 0 min 0 W/m 12,9 km/h (3 Bft) 97,87 %
23.01.2023 23:58 2,8 C 2,2 C -0,6 C 88 % 1037,6 hPa 0,0 l/m 0 min 0 min 0 W/m 9,7 km/h (2 Bft) 97,87 %
_ Min-Zeit 05:05 05:00 04:55 14:45 00:00 - - - - 02:25 22:46
Minimum _ 0,9 C -0,6 C -2,2 C 85 % 1034,2 hPa - - - - 0,0 km/h (0 Bft) 58,62 %
_ Max-Zeit 13:25 13:15 13:15 00:25 21:24 00:00 00:00 00:00 13:15 17:35 00:35
Maximum _ 3,4 C 3,9 C 1,1 C 96 % 1037,8 hPa 0,0 l/m 0 min 0 min 94 W/m 22,5 km/h
W (4 Bft)
100,00 %
Durchschnitt _ 2,3 C 1,9 C -0,5 C 91 % 1036,2 hPa #0,0 l/m #0 min. #0 min. 43 W/m 9,7 km/h (2 Bft) 97,83 %
© 2023 W. Hausmann